| time (UTC) | temp C | wind direction | speed KPH | gust KPH | rain 1hr cm | rain 24hr cm | rain mn cm | humidity % | barometer mb |
| 20260507145515 | 11 | 203 | 3.2 | 14.5 | 0.15 | 1.50 | 1.50 | 90 | 1011.5 |
| 20260507145004 | 11 | 225 | 3.2 | 14.5 | 0.15 | 1.50 | 1.50 | 89 | 1011.6 |
| 20260507144456 | 12 | 203 | 8.0 | 14.5 | 0.10 | 1.45 | 1.47 | 88 | 1010.8 |
| 20260507143945 | 12 | 315 | 6.4 | 12.9 | 0.00 | 1.35 | 1.35 | 86 | 1011.0 |
| 20260507143435 | 12 | 158 | 3.2 | 14.5 | 0.00 | 1.35 | 1.35 | 85 | 1012.3 |
| 20260507142415 | 12 | 203 | 4.8 | 17.7 | 0.00 | 1.35 | 1.35 | 84 | 1012.1 |
| 20260507141904 | 12 | 225 | 4.8 | 17.7 | 0.00 | 1.35 | 1.35 | 82 | 1011.6 |
| 20260507141354 | 13 | 203 | 4.8 | 17.7 | 0.00 | 1.35 | 1.35 | 81 | 1011.2 |
| 20260507140334 | 13 | 225 | 12.9 | 24.1 | 0.00 | 1.35 | 1.35 | 79 | 1010.4 |
| 20260507135824 | 13 | 203 | 11.3 | 25.7 | 0.03 | 1.35 | 1.35 | 78 | 1009.6 |
| 20260507135313 | 13 | 180 | 9.7 | 32.2 | 0.05 | 1.35 | 1.35 | 78 | 1010.2 |
| 20260507134803 | 13 | 203 | 9.7 | 43.5 | 0.23 | 1.35 | 1.35 | 77 | 1010.0 |
| 20260507134253 | 14 | 180 | 16.1 | 43.5 | 0.23 | 1.35 | 1.35 | 76 | 1009.3 |
| 20260507133743 | 14 | 248 | 12.9 | 33.8 | 0.23 | 1.35 | 1.35 | 77 | 1009.7 |
| 20260507133232 | 14 | 248 | 16.1 | 32.2 | 0.23 | 1.35 | 1.35 | 76 | 1009.4 |
| 20260507132722 | 14 | 248 | 14.5 | 29.0 | 0.23 | 1.35 | 1.35 | 76 | 1009.9 |
| 20260507132213 | 14 | 225 | 12.9 | 25.7 | 0.23 | 1.35 | 1.35 | 78 | 1010.2 |
| 20260507131702 | 13 | 248 | 12.9 | 24.1 | 0.23 | 1.35 | 1.35 | 81 | 1009.7 |
| 20260507131153 | 14 | 203 | 9.7 | 17.7 | 0.23 | 1.35 | 1.35 | 84 | 1010.5 |
| 20260507125622 | 13 | 248 | 6.4 | 29.0 | 0.18 | 1.30 | 1.32 | 82 | 1011.3 |
| 20260507125112 | 14 | 203 | 9.7 | 29.0 | 0.13 | 1.22 | 1.22 | 78 | 1010.7 |
| 20260507124603 | 15 | 225 | 8.0 | 37.0 | 0.00 | 1.12 | 1.12 | 67 | 1010.0 |
| 20260507124052 | 16 | 270 | 9.7 | 37.0 | 0.00 | 1.12 | 1.12 | 64 | 1012.6 |
| 20260507123541 | 16 | 293 | 12.9 | 32.2 | 0.00 | 1.12 | 1.12 | 66 | 1014.3 |
| 20260507122521 | 16 | 203 | 9.7 | 32.2 | 0.00 | 1.12 | 1.12 | 66 | 1007.5 |
| 20260507120951 | 16 | 180 | 6.4 | 27.4 | 0.00 | 1.12 | 1.12 | 68 | 1007.2 |
| 20260507120441 | 16 | 90 | 14.5 | 27.4 | 0.00 | 1.12 | 1.12 | 69 | 1007.2 |
| 20260507115931 | 16 | 180 | 12.9 | 24.1 | 0.00 | 1.12 | 1.12 | 68 | 1007.3 |
| 20260507115421 | 16 | 158 | 9.7 | 25.7 | 0.00 | 1.12 | 1.12 | 69 | 1007.0 |
| 20260507114911 | 16 | 203 | 12.9 | 25.7 | 0.00 | 1.12 | 1.12 | 70 | 1006.6 |
| 20260507114401 | 16 | 225 | 6.4 | 24.1 | 0.00 | 1.12 | 1.12 | 71 | 1006.7 |
| 20260507113851 | 16 | 203 | 9.7 | 24.1 | 0.00 | 1.12 | 1.12 | 71 | 1006.2 |
| 20260507113340 | 16 | 225 | 9.7 | 24.1 | 0.00 | 1.12 | 1.12 | 72 | 1006.0 |
| 20260507112320 | 16 | 158 | 6.4 | 22.5 | 0.00 | 1.12 | 1.12 | 72 | 1005.9 |
| 20260507111301 | 16 | 113 | 6.4 | 22.5 | 0.00 | 1.12 | 1.12 | 74 | 1005.7 |
| 20260507105730 | 16 | 203 | 6.4 | 27.4 | 0.00 | 1.12 | 1.12 | 76 | 1005.4 |
| 20260507105220 | 16 | 180 | 12.9 | 27.4 | 0.00 | 1.12 | 1.12 | 75 | 1005.2 |
| 20260507104710 | 16 | 203 | 11.3 | 37.0 | 0.00 | 1.12 | 1.12 | 75 | 1004.6 |
| 20260507104200 | 16 | 158 | 16.1 | 37.0 | 0.00 | 1.12 | 1.12 | 75 | 1004.5 |
| 20260507103649 | 16 | 158 | 12.9 | 33.8 | 0.00 | 1.12 | 1.12 | 77 | 1004.6 |
| 20260507103139 | 16 | 180 | 14.5 | 33.8 | 0.00 | 1.12 | 1.12 | 76 | 1004.6 |
| 20260507102629 | 16 | 225 | 17.7 | 38.6 | 0.00 | 1.12 | 1.12 | 78 | 1004.7 |
| 20260507102118 | 16 | 158 | 8.0 | 38.6 | 0.00 | 1.12 | 1.12 | 81 | 1004.3 |
| 20260507101609 | 16 | 158 | 11.3 | 29.0 | 0.00 | 1.12 | 1.12 | 85 | 1004.3 |
| 20260507101058 | 15 | 158 | 16.1 | 27.4 | 0.03 | 1.12 | 1.12 | 91 | 1004.5 |
| 20260507100549 | 16 | 225 | 12.9 | 29.0 | 0.10 | 1.12 | 1.12 | 94 | 1004.1 |
| 20260507100039 | 17 | 180 | 14.5 | 29.0 | 0.10 | 1.12 | 1.12 | 96 | 1004.0 |
| 20260507095528 | 17 | 225 | 8.0 | 25.7 | 0.10 | 1.12 | 1.12 | 97 | 1004.0 |
| 20260507095018 | 17 | 203 | 6.4 | 24.1 | 0.10 | 1.12 | 1.12 | 97 | 1004.3 |
| 20260507094505 | 17 | 203 | 12.9 | 24.1 | 0.10 | 1.12 | 1.12 | 97 | 1004.6 |
| 20260507093958 | 17 | 225 | 9.7 | 29.0 | 0.10 | 1.12 | 1.12 | 97 | 1004.5 |
| 20260507093448 | 17 | 180 | 11.3 | 29.0 | 0.10 | 1.12 | 1.12 | 97 | 1004.6 |
| 20260507092938 | 17 | 203 | 12.9 | 27.4 | 0.10 | 1.12 | 1.12 | 97 | 1004.7 |
| 20260507092427 | 17 | 203 | 8.0 | 27.4 | 0.10 | 1.12 | 1.12 | 97 | 1004.6 |
| 20260507091917 | 17 | 180 | 6.4 | 22.5 | 0.10 | 1.12 | 1.12 | 97 | 1004.7 |
| 20260507090858 | 18 | 203 | 8.0 | 20.9 | 0.00 | 1.02 | 1.04 | 97 | 1004.8 |
| 20260507090347 | 18 | 225 | 8.0 | 20.9 | 0.00 | 1.02 | 1.02 | 97 | 1004.7 |
| 20260507085843 | 18 | 203 | 6.4 | 17.7 | 0.00 | 1.02 | 1.02 | 97 | 1004.5 |
| 20260507085326 | 18 | 203 | 8.0 | 17.7 | 0.00 | 1.02 | 1.02 | 97 | 1004.5 |
| 20260507084817 | 17 | 180 | 8.0 | 20.9 | 0.03 | 1.02 | 1.02 | 97 | 1004.2 |
| 20260507084307 | 17 | 203 | 6.4 | 20.9 | 0.03 | 1.02 | 1.02 | 97 | 1004.1 |
| 20260507083757 | 17 | 180 | 8.0 | 20.9 | 0.03 | 1.02 | 1.02 | 97 | 1003.8 |
| 20260507082736 | 18 | 180 | 6.4 | 25.7 | 0.03 | 1.02 | 1.02 | 97 | 1003.5 |
| 20260507082226 | 18 | 203 | 6.4 | 25.7 | 0.03 | 1.02 | 1.02 | 97 | 1003.6 |
| 20260507081716 | 18 | 225 | 8.0 | 17.7 | 0.05 | 1.02 | 1.02 | 97 | 1003.7 |
| 20260507081206 | 18 | 225 | 6.4 | 17.7 | 0.61 | 1.02 | 1.02 | 97 | 1003.7 |
| 20260507080656 | 18 | 203 | 6.4 | 17.7 | 0.76 | 1.02 | 1.02 | 97 | 1003.5 |
| 20260507080146 | 18 | 203 | 4.8 | 17.7 | 0.76 | 1.02 | 1.02 | 97 | 1003.5 |
| 20260507075635 | 18 | 203 | 8.0 | 17.7 | 0.76 | 1.02 | 1.02 | 97 | 1003.3 |
| 20260507074616 | 18 | 180 | 6.4 | 22.5 | 0.94 | 0.99 | 0.99 | 97 | 1002.8 |
| 20260507073555 | 18 | 135 | 9.7 | 20.9 | 0.99 | 0.99 | 0.99 | 97 | 1003.2 |
| 20260507073045 | 18 | 180 | 8.0 | 20.9 | 0.99 | 0.99 | 0.99 | 97 | 1003.1 |
| 20260507072535 | 18 | 203 | 6.4 | 22.5 | 0.99 | 0.99 | 0.99 | 97 | 1003.4 |
| 20260507072025 | 18 | 225 | 12.9 | 22.5 | 0.99 | 0.99 | 0.99 | 97 | 1003.5 |
| 20260507071005 | 18 | 203 | 4.8 | 17.7 | 0.33 | 0.33 | 0.33 | 97 | 1003.5 |
| 20260507065944 | 19 | 158 | 8.0 | 27.4 | 0.28 | 0.28 | 0.28 | 94 | 1003.2 |
| 20260507065434 | 19 | 135 | 16.1 | 32.2 | 0.23 | 0.23 | 0.28 | 95 | 1003.2 |
| 20260507064924 | 20 | 203 | 17.7 | 32.2 | 0.20 | 0.20 | 0.20 | 96 | 1002.5 |
| 20260507064414 | 21 | 203 | 8.0 | 20.9 | 0.03 | 0.03 | 0.03 | 95 | 1002.7 |
| 20260507063904 | 21 | 293 | 0.0 | 3.2 | 0.00 | 0.00 | 0.00 | 95 | 1002.1 |
| 20260507062843 | 21 | 338 | 0.0 | 3.2 | 0.00 | 0.00 | 0.00 | 95 | 1002.2 |
| 20260507062334 | 21 | 338 | 0.0 | 3.2 | 0.00 | 0.00 | 0.00 | 95 | 1002.3 |
| 20260507061824 | 21 | 315 | 0.0 | 3.2 | 0.00 | 0.00 | 0.00 | 95 | 1002.6 |
| 20260507061313 | 21 | 315 | 0.0 | 3.2 | 0.00 | 0.00 | 0.00 | 95 | 1002.4 |
| 20260507060254 | 21 | 315 | 0.0 | 0.0 | 0.00 | 0.00 | 0.00 | 95 | 1002.7 |
| 20260507055743 | 21 | 315 | 0.0 | 0.0 | 0.00 | 0.00 | 0.00 | 94 | 1002.6 |
| 20260507055232 | 21 | 315 | 0.0 | 0.0 | 0.00 | 0.00 | 0.00 | 94 | 1002.8 |
| 20260507054212 | 22 | 315 | 0.0 | 0.0 | 0.00 | 0.00 | 0.00 | 94 | 1002.7 |
| 20260507053152 | 22 | 315 | 0.0 | 3.2 | 0.00 | 0.00 | 0.00 | 94 | 1002.8 |
| 20260507052642 | 22 | 315 | 0.0 | 3.2 | 0.00 | 0.00 | 0.00 | 94 | 1002.5 |
| 20260507052132 | 22 | 338 | 0.0 | 3.2 | 0.00 | 0.00 | 0.00 | 94 | 1002.6 |
| 20260507051622 | 22 | 338 | 0.0 | 3.2 | 0.00 | 0.00 | 0.00 | 94 | 1002.4 |
| 20260507051112 | 22 | 338 | 0.0 | 0.0 | 0.00 | 0.00 | 0.00 | 94 | 1002.6 |
| 20260507050601 | 22 | 315 | 0.0 | 0.0 | 0.00 | 0.00 | 0.00 | 93 | 1002.7 |
| 20260507045542 | 22 | 315 | 0.0 | 0.0 | 0.00 | 0.00 | 0.00 | 93 | 1002.6 |
| 20260507045031 | 22 | 315 | 0.0 | 0.0 | 0.00 | 0.00 | 0.00 | 93 | 1002.5 |
| 20260507044531 | 22 | 315 | 0.0 | 0.0 | 0.00 | 0.00 | 0.00 | 93 | 1002.5 |
| 20260507043501 | 22 | 315 | 0.0 | 3.2 | 0.00 | 0.00 | 0.00 | 93 | 1002.7 |
| 20260507042950 | 22 | 338 | 0.0 | 3.2 | 0.00 | 0.00 | 0.00 | 93 | 1002.7 |
| 20260507042441 | 22 | 0 | 0.0 | 3.2 | 0.00 | 0.00 | 0.00 | 93 | 1002.8 |
| 20260507041931 | 22 | 0 | 0.0 | 3.2 | 0.00 | 0.00 | 0.00 | 92 | 1002.7 |
| 20260507041420 | 22 | 0 | 1.6 | 3.2 | 0.00 | 0.00 | 0.00 | 92 | 1003.0 |
| 20260507040910 | 22 | 338 | 1.6 | 3.2 | 0.00 | 0.00 | 0.00 | 92 | 1002.8 |
| 20260507035850 | 22 | 338 | 0.0 | 3.2 | 0.00 | 0.00 | 0.00 | 92 | 1002.8 |
| 20260507035340 | 22 | 315 | 0.0 | 6.4 | 0.00 | 0.00 | 0.00 | 92 | 1002.9 |
| 20260507034830 | 22 | 315 | 0.0 | 6.4 | 0.00 | 0.00 | 0.00 | 92 | 1002.9 |
| 20260507034320 | 22 | 315 | 3.2 | 6.4 | 0.00 | 0.00 | 0.00 | 93 | 1003.0 |
| 20260507033810 | 22 | 338 | 0.0 | 3.2 | 0.00 | 0.00 | 0.00 | 93 | 1003.4 |
| 20260507033259 | 22 | 338 | 0.0 | 0.0 | 0.00 | 0.00 | 0.00 | 92 | 1003.3 |
| 20260507032749 | 22 | 338 | 0.0 | 0.0 | 0.00 | 0.00 | 0.00 | 92 | 1003.6 |
| 20260507032239 | 22 | 315 | 0.0 | 0.0 | 0.00 | 0.00 | 0.00 | 92 | 1003.6 |
| 20260507031730 | 22 | 315 | 0.0 | 3.2 | 0.00 | 0.00 | 0.00 | 92 | 1003.6 |
| 20260507030159 | 22 | 315 | 1.6 | 6.4 | 0.00 | 0.00 | 0.00 | 92 | 1003.5 |
| 20260507025138 | 22 | 0 | 3.2 | 6.4 | 0.00 | 0.00 | 0.18 | 91 | 1003.3 |
| 20260507024628 | 22 | 0 | 3.2 | 6.4 | 0.00 | 0.00 | 0.18 | 91 | 1003.5 |
| 20260507024119 | 22 | 338 | 3.2 | 6.4 | 0.00 | 0.00 | 0.18 | 91 | 1003.4 |
| 20260507023608 | 23 | 0 | 3.2 | 6.4 | 0.00 | 0.00 | 0.18 | 90 | 1003.5 |
| 20260507023059 | 23 | 0 | 4.8 | 6.4 | 0.00 | 0.00 | 0.18 | 90 | 1003.3 |
| 20260507022548 | 23 | 338 | 3.2 | 6.4 | 0.00 | 0.00 | 0.18 | 90 | 1003.4 |
| 20260507022039 | 23 | 0 | 3.2 | 6.4 | 0.00 | 0.00 | 0.18 | 89 | 1003.5 |
| 20260507021533 | 23 | 0 | 3.2 | 6.4 | 0.00 | 0.00 | 0.18 | 89 | 1003.5 |
| 20260507021017 | 23 | 338 | 3.2 | 3.2 | 0.00 | 0.00 | 0.18 | 89 | 1003.7 |
| 20260507020508 | 23 | 338 | 0.0 | 3.2 | 0.00 | 0.00 | 0.18 | 89 | 1003.7 |
| 20260507015957 | 23 | 315 | 0.0 | 3.2 | 0.00 | 0.00 | 0.18 | 89 | 1003.7 |
| 20260507015448 | 23 | 315 | 0.0 | 3.2 | 0.00 | 0.00 | 0.18 | 89 | 1003.8 |
| 20260507014937 | 23 | 315 | 0.0 | 3.2 | 0.00 | 0.00 | 0.18 | 89 | 1003.7 |
| 20260507014427 | 23 | 338 | 1.6 | 3.2 | 0.00 | 0.00 | 0.18 | 89 | 1003.8 |
| 20260507013917 | 23 | 338 | 0.0 | 0.0 | 0.00 | 0.00 | 0.18 | 89 | 1003.7 |
| 20260507013407 | 23 | 338 | 0.0 | 0.0 | 0.00 | 0.00 | 0.18 | 89 | 1003.5 |
| 20260507012857 | 23 | 338 | 0.0 | 3.2 | 0.00 | 0.00 | 0.18 | 88 | 1003.6 |
| 20260507012347 | 23 | 338 | 0.0 | 3.2 | 0.00 | 0.00 | 0.18 | 88 | 1003.7 |
| 20260507011837 | 23 | 315 | 0.0 | 3.2 | 0.00 | 0.00 | 0.18 | 88 | 1003.6 |
| 20260507011327 | 23 | 338 | 0.0 | 3.2 | 0.00 | 0.00 | 0.18 | 88 | 1003.3 |
| 20260507010306 | 23 | 338 | 1.6 | 6.4 | 0.00 | 0.00 | 0.18 | 87 | 1003.1 |
| 20260507005755 | 23 | 338 | 3.2 | 9.7 | 0.00 | 0.00 | 0.18 | 87 | 1002.9 |
| 20260507005246 | 23 | 0 | 3.2 | 11.3 | 0.00 | 0.00 | 0.18 | 87 | 1002.8 |
| 20260507004226 | 24 | 45 | 6.4 | 11.3 | 0.00 | 0.00 | 0.18 | 87 | 1002.3 |
| 20260507003715 | 24 | 23 | 6.4 | 12.9 | 0.00 | 0.00 | 0.18 | 86 | 1002.5 |
| 20260507003206 | 24 | 68 | 6.4 | 12.9 | 0.00 | 0.00 | 0.18 | 86 | 1002.5 |
| 20260507002656 | 24 | 45 | 6.4 | 17.7 | 0.00 | 0.00 | 0.18 | 86 | 1002.3 |
| 20260507002145 | 24 | 0 | 6.4 | 20.9 | 0.00 | 0.00 | 0.18 | 85 | 1002.3 |
| 20260507001125 | 25 | 23 | 6.4 | 20.9 | 0.00 | 0.00 | 0.18 | 85 | 1002.2 |
| 20260507000615 | 25 | 23 | 8.0 | 17.7 | 0.00 | 0.00 | 0.18 | 85 | 1002.3 |
| 20260507000104 | 24 | 23 | 8.0 | 17.7 | 0.00 | 0.00 | 0.18 | 85 | 1002.2 |
| 20260506235557 | 24 | 23 | 6.4 | 14.5 | 0.00 | 0.00 | 0.18 | 85 | 1002.2 |
| 20260506235045 | 25 | 0 | 6.4 | 12.9 | 0.00 | 0.00 | 0.18 | 85 | 1002.2 |
| 20260506234535 | 25 | 0 | 6.4 | 12.9 | 0.00 | 0.00 | 0.18 | 84 | 1002.4 |
| 20260506234024 | 25 | 45 | 6.4 | 14.5 | 0.00 | 0.00 | 0.18 | 84 | 1002.3 |
| 20260506233005 | 25 | 23 | 6.4 | 17.7 | 0.00 | 0.00 | 0.18 | 83 | 1002.5 |
| 20260506231944 | 25 | 23 | 6.4 | 17.7 | 0.00 | 0.00 | 0.18 | 83 | 1002.1 |
| 20260506230924 | 25 | 0 | 6.4 | 14.5 | 0.00 | 0.00 | 0.18 | 83 | 1002.2 |
| 20260506230414 | 25 | 23 | 6.4 | 14.5 | 0.00 | 0.00 | 0.18 | 84 | 1002.2 |
| 20260506225904 | 25 | 45 | 8.0 | 12.9 | 0.00 | 0.00 | 0.18 | 84 | 1002.1 |
| 20260506224843 | 24 | 0 | 6.4 | 11.3 | 0.00 | 0.00 | 0.18 | 86 | 1002.3 |
| 20260506224333 | 24 | 338 | 6.4 | 9.7 | 0.00 | 0.00 | 0.18 | 87 | 1002.4 |
| 20260506223823 | 24 | 45 | 4.8 | 9.7 | 0.00 | 0.00 | 0.18 | 87 | 1002.4 |
| 20260506223313 | 24 | 68 | 3.2 | 9.7 | 0.00 | 0.00 | 0.18 | 88 | 1002.6 |
| 20260506222802 | 24 | 45 | 3.2 | 6.4 | 0.00 | 0.00 | 0.18 | 89 | 1002.5 |
| 20260506222253 | 24 | 45 | 3.2 | 6.4 | 0.00 | 0.00 | 0.18 | 89 | 1002.8 |
| 20260506221742 | 25 | 23 | 3.2 | 6.4 | 0.00 | 0.00 | 0.18 | 88 | 1002.6 |
| 20260506221233 | 25 | 23 | 3.2 | 6.4 | 0.00 | 0.00 | 0.18 | 88 | 1002.5 |
| 20260506220723 | 25 | 315 | 0.0 | 3.2 | 0.00 | 0.00 | 0.18 | 86 | 1002.7 |
| 20260506220212 | 25 | 315 | 0.0 | 3.2 | 0.00 | 0.00 | 0.18 | 86 | 1002.9 |
| 20260506215703 | 26 | 293 | 0.0 | 3.2 | 0.00 | 0.00 | 0.18 | 85 | 1003.0 |
| 20260506215152 | 26 | 293 | 0.0 | 3.2 | 0.00 | 0.00 | 0.18 | 85 | 1003.2 |
| 20260506214132 | 26 | 315 | 0.0 | 3.2 | 0.00 | 0.00 | 0.18 | 84 | 1003.4 |
| 20260506213622 | 26 | 315 | 0.0 | 3.2 | 0.00 | 0.00 | 0.18 | 84 | 1003.3 |
| 20260506213113 | 27 | 315 | 1.6 | 3.2 | 0.00 | 0.00 | 0.18 | 82 | 1003.3 |
| 20260506211541 | 27 | 293 | 1.6 | 6.4 | 0.00 | 0.00 | 0.18 | 80 | 1003.3 |
| 20260506211032 | 28 | 315 | 4.8 | 6.4 | 0.00 | 0.00 | 0.18 | 79 | 1003.3 |
| 20260506210011 | 28 | 315 | 3.2 | 6.4 | 0.00 | 0.00 | 0.18 | 78 | 1003.4 |
| 20260506205501 | 28 | 315 | 3.2 | 6.4 | 0.00 | 0.00 | 0.18 | 78 | 1003.4 |
| 20260506204951 | 28 | 315 | 3.2 | 6.4 | 0.00 | 0.00 | 0.18 | 77 | 1003.5 |
| 20260506204440 | 28 | 315 | 3.2 | 6.4 | 0.00 | 0.00 | 0.18 | 77 | 1003.5 |
| 20260506203420 | 30 | 293 | 3.2 | 14.5 | 0.00 | 0.00 | 0.18 | 74 | 1003.6 |
| 20260506202910 | 30 | 315 | 8.0 | 14.5 | 0.00 | 0.00 | 0.18 | 71 | 1003.5 |
| 20260506202359 | 30 | 315 | 8.0 | 14.5 | 0.00 | 0.00 | 0.18 | 71 | 1003.4 |
| 20260506201850 | 30 | 0 | 3.2 | 6.4 | 0.00 | 0.00 | 0.18 | 71 | 1003.3 |
| 20260506201340 | 30 | 0 | 3.2 | 12.9 | 0.00 | 0.00 | 0.18 | 71 | 1003.3 |
| 20260506200829 | 29 | 23 | 4.8 | 12.9 | 0.00 | 0.00 | 0.18 | 71 | 1003.5 |
| 20260506200319 | 29 | 23 | 3.2 | 12.9 | 0.00 | 0.00 | 0.18 | 72 | 1003.4 |
| 20260506195810 | 29 | 23 | 6.4 | 14.5 | 0.00 | 0.00 | 0.18 | 72 | 1003.3 |
| 20260506194750 | 29 | 23 | 6.4 | 14.5 | 0.00 | 0.00 | 0.18 | 72 | 1003.4 |
| 20260506194239 | 29 | 0 | 4.8 | 14.5 | 0.00 | 0.00 | 0.18 | 72 | 1003.6 |
| 20260506193729 | 30 | 23 | 6.4 | 17.7 | 0.00 | 0.00 | 0.18 | 70 | 1003.4 |
| 20260506193220 | 30 | 45 | 11.3 | 17.7 | 0.00 | 0.00 | 0.18 | 70 | 1003.6 |
| 20260506192708 | 30 | 23 | 6.4 | 12.9 | 0.00 | 0.00 | 0.18 | 71 | 1003.3 |
| 20260506192200 | 30 | 45 | 6.4 | 12.9 | 0.00 | 0.00 | 0.18 | 71 | 1003.6 |
| 20260506191139 | 29 | 23 | 6.4 | 17.7 | 0.00 | 0.00 | 0.18 | 72 | 1003.8 |
| 20260506190629 | 30 | 338 | 8.0 | 17.7 | 0.00 | 0.00 | 0.18 | 71 | 1003.7 |
| 20260506190119 | 30 | 23 | 6.4 | 17.7 | 0.00 | 0.00 | 0.18 | 70 | 1003.8 |
| 20260506185058 | 30 | 23 | 6.4 | 22.5 | 0.00 | 0.00 | 0.18 | 70 | 1003.8 |
| 20260506184547 | 30 | 23 | 9.7 | 17.7 | 0.00 | 0.00 | 0.18 | 70 | 1003.7 |
| 20260506184038 | 30 | 315 | 9.7 | 17.7 | 0.00 | 0.00 | 0.18 | 70 | 1003.6 |
| 20260506183528 | 30 | 45 | 11.3 | 20.9 | 0.00 | 0.00 | 0.18 | 70 | 1003.8 |
| 20260506183017 | 30 | 23 | 11.3 | 20.9 | 0.00 | 0.00 | 0.18 | 70 | 1003.7 |
| 20260506182508 | 30 | 23 | 8.0 | 20.9 | 0.00 | 0.00 | 0.18 | 69 | 1004.0 |
| 20260506181957 | 30 | 23 | 6.4 | 25.7 | 0.00 | 0.00 | 0.18 | 70 | 1004.1 |
| 20260506180937 | 30 | 45 | 6.4 | 20.9 | 0.00 | 0.00 | 0.18 | 71 | 1004.4 |
| 20260506180427 | 30 | 0 | 12.9 | 17.7 | 0.00 | 0.00 | 0.18 | 70 | 1004.4 |
| 20260506175914 | 28 | 45 | 12.9 | 17.7 | 0.00 | 0.00 | 0.18 | 76 | 1007.4 |
| 20260506170141 | 29 | 315 | 6.4 | 11.3 | 0.00 | 0.00 | 0.18 | 72 | 1006.5 |
| 20260506165631 | 29 | 315 | 6.4 | 11.3 | 0.00 | 0.00 | 0.18 | 72 | 1006.5 |
| 20260506165120 | 29 | 315 | 6.4 | 11.3 | 0.00 | 0.00 | 0.18 | 72 | 1006.5 |
| 20260506164611 | 29 | 315 | 6.4 | 11.3 | 0.00 | 0.00 | 0.18 | 72 | 1006.5 |
| 20260506164100 | 29 | 315 | 6.4 | 11.3 | 0.00 | 0.00 | 0.18 | 72 | 1006.5 |
| 20260506163550 | 29 | 315 | 6.4 | 11.3 | 0.00 | 0.00 | 0.18 | 72 | 1006.5 |
| 20260506163045 | 29 | 315 | 6.4 | 11.3 | 0.00 | 0.00 | 0.18 | 72 | 1006.5 |
| 20260506162019 | 29 | 315 | 6.4 | 11.3 | 0.00 | 0.00 | 0.18 | 72 | 1006.5 |
| 20260506161515 | 29 | 315 | 6.4 | 17.7 | 0.00 | 0.00 | 0.18 | 72 | 1006.5 |
| 20260506161000 | 29 | 315 | 6.4 | 20.9 | 0.00 | 0.00 | 0.18 | 72 | 1006.5 |
| 20260506160449 | 29 | 0 | 12.9 | 20.9 | 0.00 | 0.00 | 0.18 | 72 | 1006.3 |
| 20260506155939 | 28 | 45 | 4.8 | 22.5 | 0.00 | 0.00 | 0.18 | 74 | 1006.7 |
| 20260506155429 | 28 | 23 | 9.7 | 22.5 | 0.00 | 0.00 | 0.18 | 74 | 1006.8 |
| 20260506154919 | 28 | 0 | 12.9 | 24.1 | 0.00 | 0.00 | 0.18 | 74 | 1006.9 |
| 20260506154409 | 28 | 68 | 12.9 | 24.1 | 0.00 | 0.00 | 0.18 | 74 | 1007.0 |
| 20260506153859 | 28 | 0 | 12.9 | 25.7 | 0.00 | 0.00 | 0.18 | 74 | 1007.0 |
| 20260506152329 | 28 | 23 | 6.4 | 24.1 | 0.00 | 0.00 | 0.18 | 78 | 1007.5 |
| 20260506151819 | 28 | 0 | 12.9 | 22.5 | 0.00 | 0.00 | 0.18 | 77 | 1007.6 |
| 20260506151308 | 28 | 23 | 12.9 | 24.1 | 0.00 | 0.00 | 0.18 | 77 | 1007.8 |
| 20260506150758 | 27 | 45 | 12.9 | 24.1 | 0.00 | 0.00 | 0.18 | 78 | 1008.0 |